sensor_id;sensor_type;location;lat;lon;timestamp;P1;durP1;ratioP1;P2;durP2;ratioP2
16820;SDS011;8527;49.740;6.604;2024-01-30T00:03:44;9.65;;;5.78;;
16820;SDS011;8527;49.740;6.604;2024-01-30T00:08:43;10.07;;;5.32;;
16820;SDS011;8527;49.740;6.604;2024-01-30T00:13:46;8.90;;;5.55;;
16820;SDS011;8527;49.740;6.604;2024-01-30T00:18:45;8.05;;;5.20;;
16820;SDS011;8527;49.740;6.604;2024-01-30T00:23:46;9.57;;;5.30;;
16820;SDS011;8527;49.740;6.604;2024-01-30T00:28:47;9.07;;;5.07;;
16820;SDS011;8527;49.740;6.604;2024-01-30T00:33:45;9.95;;;5.28;;
16820;SDS011;8527;49.740;6.604;2024-01-30T00:38:44;8.00;;;5.43;;
16820;SDS011;8527;49.740;6.604;2024-01-30T00:43:47;8.63;;;5.57;;
16820;SDS011;8527;49.740;6.604;2024-01-30T00:48:48;10.55;;;5.32;;
16820;SDS011;8527;49.740;6.604;2024-01-30T00:53:47;12.18;;;6.72;;
16820;SDS011;8527;49.740;6.604;2024-01-30T00:58:48;12.02;;;6.13;;
16820;SDS011;8527;49.740;6.604;2024-01-30T01:03:49;11.45;;;6.30;;
16820;SDS011;8527;49.740;6.604;2024-01-30T01:08:48;8.40;;;5.55;;
16820;SDS011;8527;49.740;6.604;2024-01-30T01:13:49;10.43;;;5.47;;
16820;SDS011;8527;49.740;6.604;2024-01-30T01:18:47;8.52;;;5.45;;
16820;SDS011;8527;49.740;6.604;2024-01-30T01:23:48;10.82;;;5.70;;
16820;SDS011;8527;49.740;6.604;2024-01-30T01:28:52;10.07;;;6.13;;
16820;SDS011;8527;49.740;6.604;2024-01-30T01:33:51;10.18;;;5.57;;
16820;SDS011;8527;49.740;6.604;2024-01-30T01:38:49;10.65;;;5.85;;
16820;SDS011;8527;49.740;6.604;2024-01-30T01:43:47;11.63;;;6.07;;
16820;SDS011;8527;49.740;6.604;2024-01-30T01:48:48;11.70;;;6.07;;
16820;SDS011;8527;49.740;6.604;2024-01-30T01:53:49;12.27;;;5.53;;
16820;SDS011;8527;49.740;6.604;2024-01-30T01:58:48;8.68;;;6.05;;
16820;SDS011;8527;49.740;6.604;2024-01-30T02:03:52;12.55;;;6.22;;
16820;SDS011;8527;49.740;6.604;2024-01-30T02:08:53;10.23;;;5.93;;
16820;SDS011;8527;49.740;6.604;2024-01-30T02:13:52;12.07;;;6.18;;
16820;SDS011;8527;49.740;6.604;2024-01-30T02:18:53;10.30;;;5.88;;
16820;SDS011;8527;49.740;6.604;2024-01-30T02:23:53;12.48;;;6.07;;
16820;SDS011;8527;49.740;6.604;2024-01-30T02:28:53;10.55;;;5.93;;
16820;SDS011;8527;49.740;6.604;2024-01-30T02:33:52;12.90;;;6.50;;
16820;SDS011;8527;49.740;6.604;2024-01-30T02:38:54;13.15;;;6.45;;
16820;SDS011;8527;49.740;6.604;2024-01-30T02:43:52;13.82;;;6.20;;
16820;SDS011;8527;49.740;6.604;2024-01-30T02:48:50;41.65;;;8.30;;
16820;SDS011;8527;49.740;6.604;2024-01-30T02:53:49;21.60;;;7.72;;
16820;SDS011;8527;49.740;6.604;2024-01-30T02:58:50;24.10;;;9.70;;
16820;SDS011;8527;49.740;6.604;2024-01-30T03:03:48;38.08;;;9.20;;
16820;SDS011;8527;49.740;6.604;2024-01-30T03:08:46;18.08;;;8.25;;
16820;SDS011;8527;49.740;6.604;2024-01-30T03:13:45;20.05;;;7.57;;
16820;SDS011;8527;49.740;6.604;2024-01-30T03:18:46;18.77;;;8.02;;
16820;SDS011;8527;49.740;6.604;2024-01-30T03:23:46;26.80;;;9.50;;
16820;SDS011;8527;49.740;6.604;2024-01-30T03:28:48;32.08;;;9.95;;
16820;SDS011;8527;49.740;6.604;2024-01-30T03:33:48;30.95;;;9.38;;
16820;SDS011;8527;49.740;6.604;2024-01-30T03:38:48;20.33;;;8.52;;
16820;SDS011;8527;49.740;6.604;2024-01-30T03:43:49;62.78;;;9.82;;
16820;SDS011;8527;49.740;6.604;2024-01-30T03:48:50;26.00;;;8.52;;
16820;SDS011;8527;49.740;6.604;2024-01-30T03:53:52;25.50;;;9.55;;
16820;SDS011;8527;49.740;6.604;2024-01-30T03:58:50;25.27;;;10.45;;
16820;SDS011;8527;49.740;6.604;2024-01-30T04:03:51;18.40;;;10.07;;
16820;SDS011;8527;49.740;6.604;2024-01-30T04:08:49;17.88;;;10.13;;
16820;SDS011;8527;49.740;6.604;2024-01-30T04:13:48;21.33;;;9.60;;
16820;SDS011;8527;49.740;6.604;2024-01-30T04:18:46;15.88;;;9.07;;
16820;SDS011;8527;49.740;6.604;2024-01-30T04:23:47;16.15;;;9.60;;
16820;SDS011;8527;49.740;6.604;2024-01-30T04:28:46;22.48;;;10.07;;
16820;SDS011;8527;49.740;6.604;2024-01-30T04:33:44;20.77;;;9.75;;
16820;SDS011;8527;49.740;6.604;2024-01-30T04:38:47;22.80;;;11.07;;
16820;SDS011;8527;49.740;6.604;2024-01-30T04:43:46;16.63;;;9.07;;
16820;SDS011;8527;49.740;6.604;2024-01-30T04:48:47;32.65;;;10.60;;
16820;SDS011;8527;49.740;6.604;2024-01-30T04:53:49;38.83;;;11.50;;
16820;SDS011;8527;49.740;6.604;2024-01-30T04:58:47;131.98;;;13.25;;
16820;SDS011;8527;49.740;6.604;2024-01-30T05:03:46;24.42;;;10.90;;
16820;SDS011;8527;49.740;6.604;2024-01-30T05:08:46;30.92;;;10.25;;
16820;SDS011;8527;49.740;6.604;2024-01-30T05:13:49;25.38;;;10.82;;
16820;SDS011;8527;49.740;6.604;2024-01-30T05:18:48;41.22;;;11.05;;
16820;SDS011;8527;49.740;6.604;2024-01-30T05:23:51;17.70;;;9.55;;
16820;SDS011;8527;49.740;6.604;2024-01-30T05:28:50;69.78;;;12.43;;
16820;SDS011;8527;49.740;6.604;2024-01-30T05:33:48;16.52;;;9.57;;
16820;SDS011;8527;49.740;6.604;2024-01-30T05:38:46;38.83;;;12.18;;
16820;SDS011;8527;49.740;6.604;2024-01-30T05:43:50;47.25;;;12.48;;
16820;SDS011;8527;49.740;6.604;2024-01-30T05:48:51;50.58;;;13.63;;
16820;SDS011;8527;49.740;6.604;2024-01-30T05:53:50;43.20;;;13.18;;
16820;SDS011;8527;49.740;6.604;2024-01-30T05:58:52;27.63;;;12.18;;
16820;SDS011;8527;49.740;6.604;2024-01-30T06:03:51;72.18;;;13.23;;
16820;SDS011;8527;49.740;6.604;2024-01-30T06:08:49;34.17;;;12.35;;
16820;SDS011;8527;49.740;6.604;2024-01-30T06:13:53;26.10;;;11.80;;
16820;SDS011;8527;49.740;6.604;2024-01-30T06:18:51;46.60;;;12.82;;
16820;SDS011;8527;49.740;6.604;2024-01-30T06:23:49;47.03;;;13.30;;
16820;SDS011;8527;49.740;6.604;2024-01-30T06:28:53;53.45;;;13.10;;
16820;SDS011;8527;49.740;6.604;2024-01-30T06:33:57;28.93;;;11.70;;
16820;SDS011;8527;49.740;6.604;2024-01-30T06:38:56;19.42;;;10.82;;
16820;SDS011;8527;49.740;6.604;2024-01-30T06:44:02;27.88;;;12.30;;
16820;SDS011;8527;49.740;6.604;2024-01-30T06:49:06;25.38;;;11.38;;
16820;SDS011;8527;49.740;6.604;2024-01-30T06:54:07;47.80;;;12.45;;
16820;SDS011;8527;49.740;6.604;2024-01-30T06:59:08;20.67;;;11.88;;
16820;SDS011;8527;49.740;6.604;2024-01-30T07:04:07;20.17;;;11.00;;
16820;SDS011;8527;49.740;6.604;2024-01-30T07:09:05;24.73;;;11.57;;
16820;SDS011;8527;49.740;6.604;2024-01-30T07:14:03;19.60;;;11.25;;
16820;SDS011;8527;49.740;6.604;2024-01-30T07:19:05;20.98;;;10.93;;
16820;SDS011;8527;49.740;6.604;2024-01-30T07:24:04;22.63;;;10.90;;
16820;SDS011;8527;49.740;6.604;2024-01-30T07:29:03;19.02;;;10.35;;
16820;SDS011;8527;49.740;6.604;2024-01-30T07:34:01;16.20;;;9.98;;
16820;SDS011;8527;49.740;6.604;2024-01-30T07:39:03;16.25;;;9.73;;
16820;SDS011;8527;49.740;6.604;2024-01-30T07:44:05;17.35;;;9.30;;
16820;SDS011;8527;49.740;6.604;2024-01-30T07:49:06;17.42;;;10.82;;
16820;SDS011;8527;49.740;6.604;2024-01-30T07:54:09;20.75;;;12.30;;
16820;SDS011;8527;49.740;6.604;2024-01-30T07:59:09;19.65;;;10.88;;
16820;SDS011;8527;49.740;6.604;2024-01-30T08:04:08;19.05;;;11.10;;
16820;SDS011;8527;49.740;6.604;2024-01-30T08:09:09;17.15;;;9.77;;
16820;SDS011;8527;49.740;6.604;2024-01-30T08:14:07;15.65;;;9.75;;
16820;SDS011;8527;49.740;6.604;2024-01-30T08:19:06;17.10;;;10.07;;
16820;SDS011;8527;49.740;6.604;2024-01-30T08:24:05;16.02;;;9.60;;
16820;SDS011;8527;49.740;6.604;2024-01-30T08:29:08;15.25;;;9.40;;
16820;SDS011;8527;49.740;6.604;2024-01-30T08:34:09;13.20;;;8.43;;
16820;SDS011;8527;49.740;6.604;2024-01-30T08:39:10;12.48;;;8.98;;
16820;SDS011;8527;49.740;6.604;2024-01-30T08:44:17;12.63;;;8.63;;
16820;SDS011;8527;49.740;6.604;2024-01-30T08:49:16;13.57;;;9.35;;
16820;SDS011;8527;49.740;6.604;2024-01-30T08:54:18;13.63;;;9.45;;
16820;SDS011;8527;49.740;6.604;2024-01-30T08:59:16;15.18;;;8.73;;
16820;SDS011;8527;49.740;6.604;2024-01-30T09:04:14;17.30;;;10.10;;
16820;SDS011;8527;49.740;6.604;2024-01-30T09:09:13;16.90;;;10.00;;
16820;SDS011;8527;49.740;6.604;2024-01-30T09:14:15;16.50;;;10.38;;
16820;SDS011;8527;49.740;6.604;2024-01-30T09:19:14;17.63;;;10.60;;
16820;SDS011;8527;49.740;6.604;2024-01-30T09:24:13;17.38;;;11.40;;
16820;SDS011;8527;49.740;6.604;2024-01-30T09:29:17;15.82;;;10.02;;
16820;SDS011;8527;49.740;6.604;2024-01-30T09:34:15;25.83;;;13.45;;
16820;SDS011;8527;49.740;6.604;2024-01-30T09:39:14;18.27;;;11.52;;
16820;SDS011;8527;49.740;6.604;2024-01-30T09:44:18;19.65;;;11.05;;
16820;SDS011;8527;49.740;6.604;2024-01-30T09:49:18;17.05;;;10.48;;
16820;SDS011;8527;49.740;6.604;2024-01-30T09:54:19;15.98;;;10.02;;
16820;SDS011;8527;49.740;6.604;2024-01-30T09:59:24;20.88;;;11.38;;
16820;SDS011;8527;49.740;6.604;2024-01-30T10:04:22;17.27;;;11.02;;
16820;SDS011;8527;49.740;6.604;2024-01-30T10:09:23;19.23;;;11.82;;
16820;SDS011;8527;49.740;6.604;2024-01-30T10:14:24;19.55;;;11.60;;
16820;SDS011;8527;49.740;6.604;2024-01-30T10:19:23;17.88;;;11.32;;
16820;SDS011;8527;49.740;6.604;2024-01-30T10:24:25;18.08;;;11.48;;
16820;SDS011;8527;49.740;6.604;2024-01-30T10:29:27;24.17;;;14.13;;
16820;SDS011;8527;49.740;6.604;2024-01-30T10:34:26;25.08;;;13.80;;
16820;SDS011;8527;49.740;6.604;2024-01-30T10:39:25;19.77;;;12.70;;
16820;SDS011;8527;49.740;6.604;2024-01-30T10:44:29;19.88;;;12.20;;
16820;SDS011;8527;49.740;6.604;2024-01-30T10:49:35;18.77;;;11.90;;
16820;SDS011;8527;49.740;6.604;2024-01-30T10:54:34;22.27;;;12.70;;
16820;SDS011;8527;49.740;6.604;2024-01-30T10:59:40;20.42;;;13.25;;
16820;SDS011;8527;49.740;6.604;2024-01-30T11:04:42;20.38;;;12.57;;
16820;SDS011;8527;49.740;6.604;2024-01-30T11:09:50;18.48;;;10.32;;
16820;SDS011;8527;49.740;6.604;2024-01-30T11:14:51;15.95;;;9.65;;
16820;SDS011;8527;49.740;6.604;2024-01-30T11:20:01;12.77;;;8.63;;
16820;SDS011;8527;49.740;6.604;2024-01-30T11:25:01;11.20;;;6.68;;
16820;SDS011;8527;49.740;6.604;2024-01-30T11:30:04;12.48;;;6.75;;
16820;SDS011;8527;49.740;6.604;2024-01-30T11:35:04;14.88;;;7.13;;
16820;SDS011;8527;49.740;6.604;2024-01-30T11:40:06;14.95;;;6.43;;
16820;SDS011;8527;49.740;6.604;2024-01-30T11:45:09;10.13;;;5.93;;
16820;SDS011;8527;49.740;6.604;2024-01-30T11:50:10;9.85;;;5.97;;
16820;SDS011;8527;49.740;6.604;2024-01-30T11:55:09;11.85;;;7.03;;
16820;SDS011;8527;49.740;6.604;2024-01-30T12:00:17;10.02;;;6.15;;
16820;SDS011;8527;49.740;6.604;2024-01-30T12:05:16;14.02;;;6.75;;
16820;SDS011;8527;49.740;6.604;2024-01-30T12:10:17;12.60;;;7.07;;
16820;SDS011;8527;49.740;6.604;2024-01-30T12:15:18;11.20;;;6.28;;
16820;SDS011;8527;49.740;6.604;2024-01-30T12:20:28;12.40;;;6.45;;
16820;SDS011;8527;49.740;6.604;2024-01-30T12:25:26;15.65;;;6.88;;
16820;SDS011;8527;49.740;6.604;2024-01-30T12:30:28;12.63;;;6.55;;
16820;SDS011;8527;49.740;6.604;2024-01-30T12:35:26;13.27;;;6.40;;
16820;SDS011;8527;49.740;6.604;2024-01-30T12:40:25;11.15;;;6.70;;
16820;SDS011;8527;49.740;6.604;2024-01-30T12:45:23;12.38;;;6.90;;
16820;SDS011;8527;49.740;6.604;2024-01-30T12:50:25;12.10;;;6.80;;
16820;SDS011;8527;49.740;6.604;2024-01-30T12:55:24;10.30;;;5.95;;
16820;SDS011;8527;49.740;6.604;2024-01-30T13:00:23;11.73;;;6.22;;
16820;SDS011;8527;49.740;6.604;2024-01-30T13:05:25;12.38;;;6.95;;
16820;SDS011;8527;49.740;6.604;2024-01-30T13:10:23;14.75;;;6.50;;
16820;SDS011;8527;49.740;6.604;2024-01-30T13:15:22;11.00;;;6.18;;
16820;SDS011;8527;49.740;6.604;2024-01-30T13:20:21;11.40;;;6.68;;
16820;SDS011;8527;49.740;6.604;2024-01-30T13:25:25;13.77;;;6.13;;
16820;SDS011;8527;49.740;6.604;2024-01-30T13:30:26;10.10;;;6.07;;
16820;SDS011;8527;49.740;6.604;2024-01-30T13:35:25;10.95;;;6.13;;
16820;SDS011;8527;49.740;6.604;2024-01-30T13:40:26;12.70;;;6.50;;
16820;SDS011;8527;49.740;6.604;2024-01-30T13:45:24;10.60;;;6.07;;
16820;SDS011;8527;49.740;6.604;2024-01-30T13:50:22;10.95;;;6.45;;
16820;SDS011;8527;49.740;6.604;2024-01-30T13:55:27;11.23;;;6.10;;
16820;SDS011;8527;49.740;6.604;2024-01-30T14:00:28;13.70;;;7.30;;
16820;SDS011;8527;49.740;6.604;2024-01-30T14:05:27;10.88;;;6.57;;
16820;SDS011;8527;49.740;6.604;2024-01-30T14:10:31;11.25;;;5.88;;
16820;SDS011;8527;49.740;6.604;2024-01-30T14:15:29;11.15;;;6.05;;
16820;SDS011;8527;49.740;6.604;2024-01-30T14:20:28;13.00;;;6.40;;
16820;SDS011;8527;49.740;6.604;2024-01-30T14:25:26;11.45;;;6.53;;
16820;SDS011;8527;49.740;6.604;2024-01-30T14:30:30;10.23;;;6.40;;
16820;SDS011;8527;49.740;6.604;2024-01-30T14:35:36;10.90;;;6.30;;
16820;SDS011;8527;49.740;6.604;2024-01-30T14:40:35;15.75;;;6.47;;
16820;SDS011;8527;49.740;6.604;2024-01-30T14:45:36;13.75;;;6.35;;
16820;SDS011;8527;49.740;6.604;2024-01-30T14:50:35;11.55;;;6.35;;
16820;SDS011;8527;49.740;6.604;2024-01-30T14:55:36;11.25;;;6.22;;
16820;SDS011;8527;49.740;6.604;2024-01-30T15:00:38;13.25;;;6.63;;
16820;SDS011;8527;49.740;6.604;2024-01-30T15:05:38;11.90;;;6.80;;
16820;SDS011;8527;49.740;6.604;2024-01-30T15:10:40;10.13;;;6.20;;
16820;SDS011;8527;49.740;6.604;2024-01-30T15:15:43;12.23;;;6.68;;
16820;SDS011;8527;49.740;6.604;2024-01-30T15:20:42;10.80;;;6.95;;
16820;SDS011;8527;49.740;6.604;2024-01-30T15:25:40;12.50;;;6.90;;
16820;SDS011;8527;49.740;6.604;2024-01-30T15:30:39;11.75;;;6.50;;
16820;SDS011;8527;49.740;6.604;2024-01-30T15:35:41;12.00;;;6.82;;
16820;SDS011;8527;49.740;6.604;2024-01-30T15:40:39;13.07;;;7.45;;
16820;SDS011;8527;49.740;6.604;2024-01-30T15:45:40;13.82;;;7.60;;
16820;SDS011;8527;49.740;6.604;2024-01-30T15:50:42;15.43;;;6.88;;
16820;SDS011;8527;49.740;6.604;2024-01-30T15:55:40;16.02;;;6.72;;
16820;SDS011;8527;49.740;6.604;2024-01-30T16:00:39;15.48;;;9.00;;
16820;SDS011;8527;49.740;6.604;2024-01-30T16:05:42;16.10;;;9.35;;
16820;SDS011;8527;49.740;6.604;2024-01-30T16:10:43;13.13;;;7.25;;
16820;SDS011;8527;49.740;6.604;2024-01-30T16:15:41;12.82;;;6.90;;
16820;SDS011;8527;49.740;6.604;2024-01-30T16:20:42;16.73;;;9.20;;
16820;SDS011;8527;49.740;6.604;2024-01-30T16:25:41;12.60;;;8.45;;
16820;SDS011;8527;49.740;6.604;2024-01-30T16:30:39;12.77;;;7.43;;
16820;SDS011;8527;49.740;6.604;2024-01-30T16:35:38;13.88;;;8.82;;
16820;SDS011;8527;49.740;6.604;2024-01-30T16:40:39;14.00;;;8.10;;
16820;SDS011;8527;49.740;6.604;2024-01-30T16:45:38;14.48;;;10.00;;
16820;SDS011;8527;49.740;6.604;2024-01-30T16:50:40;14.85;;;8.60;;
16820;SDS011;8527;49.740;6.604;2024-01-30T16:55:42;14.63;;;8.77;;
16820;SDS011;8527;49.740;6.604;2024-01-30T17:00:40;17.50;;;10.20;;
16820;SDS011;8527;49.740;6.604;2024-01-30T17:05:38;23.02;;;11.57;;
16820;SDS011;8527;49.740;6.604;2024-01-30T17:10:43;26.27;;;15.82;;
16820;SDS011;8527;49.740;6.604;2024-01-30T17:15:41;17.17;;;8.90;;
16820;SDS011;8527;49.740;6.604;2024-01-30T17:20:45;13.85;;;7.45;;
16820;SDS011;8527;49.740;6.604;2024-01-30T17:25:47;19.85;;;8.57;;
16820;SDS011;8527;49.740;6.604;2024-01-30T17:30:46;20.42;;;9.10;;
16820;SDS011;8527;49.740;6.604;2024-01-30T17:35:44;18.23;;;11.38;;
16820;SDS011;8527;49.740;6.604;2024-01-30T17:40:48;16.77;;;9.77;;
16820;SDS011;8527;49.740;6.604;2024-01-30T17:45:47;19.10;;;10.90;;
16820;SDS011;8527;49.740;6.604;2024-01-30T17:50:45;12.80;;;7.97;;
16820;SDS011;8527;49.740;6.604;2024-01-30T17:55:44;14.25;;;7.95;;
16820;SDS011;8527;49.740;6.604;2024-01-30T18:00:45;11.30;;;7.63;;
16820;SDS011;8527;49.740;6.604;2024-01-30T18:05:43;13.02;;;7.40;;
16820;SDS011;8527;49.740;6.604;2024-01-30T18:10:47;14.85;;;8.63;;
16820;SDS011;8527;49.740;6.604;2024-01-30T18:15:52;14.95;;;9.02;;
16820;SDS011;8527;49.740;6.604;2024-01-30T18:20:51;15.00;;;8.65;;
16820;SDS011;8527;49.740;6.604;2024-01-30T18:25:49;11.15;;;6.40;;
16820;SDS011;8527;49.740;6.604;2024-01-30T18:30:57;15.25;;;8.25;;
16820;SDS011;8527;49.740;6.604;2024-01-30T18:35:56;13.75;;;6.85;;
16820;SDS011;8527;49.740;6.604;2024-01-30T18:40:54;9.55;;;6.35;;
16820;SDS011;8527;49.740;6.604;2024-01-30T18:45:53;14.05;;;7.60;;
16820;SDS011;8527;49.740;6.604;2024-01-30T18:50:54;13.05;;;7.15;;
16820;SDS011;8527;49.740;6.604;2024-01-30T18:55:54;17.92;;;8.50;;
16820;SDS011;8527;49.740;6.604;2024-01-30T19:00:53;27.33;;;16.48;;
16820;SDS011;8527;49.740;6.604;2024-01-30T19:05:58;24.83;;;13.80;;
16820;SDS011;8527;49.740;6.604;2024-01-30T19:10:58;22.92;;;15.40;;
16820;SDS011;8527;49.740;6.604;2024-01-30T19:15:57;23.30;;;15.18;;
16820;SDS011;8527;49.740;6.604;2024-01-30T19:21:00;49.35;;;25.98;;
16820;SDS011;8527;49.740;6.604;2024-01-30T19:25:59;50.75;;;23.38;;
16820;SDS011;8527;49.740;6.604;2024-01-30T19:30:59;42.05;;;21.05;;
16820;SDS011;8527;49.740;6.604;2024-01-30T19:36:04;37.97;;;18.75;;
16820;SDS011;8527;49.740;6.604;2024-01-30T19:41:16;31.52;;;15.15;;
16820;SDS011;8527;49.740;6.604;2024-01-30T19:46:16;26.30;;;11.93;;
16820;SDS011;8527;49.740;6.604;2024-01-30T19:51:17;18.15;;;10.68;;
16820;SDS011;8527;49.740;6.604;2024-01-30T19:56:16;14.88;;;9.20;;
16820;SDS011;8527;49.740;6.604;2024-01-30T20:01:15;26.40;;;11.60;;
16820;SDS011;8527;49.740;6.604;2024-01-30T20:06:17;18.20;;;10.25;;
16820;SDS011;8527;49.740;6.604;2024-01-30T20:11:15;18.17;;;9.43;;
16820;SDS011;8527;49.740;6.604;2024-01-30T20:16:13;14.10;;;8.18;;
16820;SDS011;8527;49.740;6.604;2024-01-30T20:21:12;23.35;;;10.00;;
16820;SDS011;8527;49.740;6.604;2024-01-30T20:26:13;18.70;;;8.15;;
16820;SDS011;8527;49.740;6.604;2024-01-30T20:31:11;14.52;;;8.60;;
16820;SDS011;8527;49.740;6.604;2024-01-30T20:36:10;16.40;;;7.88;;
16820;SDS011;8527;49.740;6.604;2024-01-30T20:41:08;12.45;;;7.25;;
16820;SDS011;8527;49.740;6.604;2024-01-30T20:46:10;12.35;;;7.32;;
16820;SDS011;8527;49.740;6.604;2024-01-30T20:51:10;11.48;;;5.85;;
16820;SDS011;8527;49.740;6.604;2024-01-30T20:56:09;10.18;;;6.43;;
16820;SDS011;8527;49.740;6.604;2024-01-30T21:01:10;12.50;;;5.90;;
16820;SDS011;8527;49.740;6.604;2024-01-30T21:06:09;9.40;;;5.65;;
16820;SDS011;8527;49.740;6.604;2024-01-30T21:11:08;12.80;;;5.68;;
16820;SDS011;8527;49.740;6.604;2024-01-30T21:16:12;13.43;;;6.20;;
16820;SDS011;8527;49.740;6.604;2024-01-30T21:21:11;10.45;;;5.80;;
16820;SDS011;8527;49.740;6.604;2024-01-30T21:26:09;8.90;;;6.35;;
16820;SDS011;8527;49.740;6.604;2024-01-30T21:31:11;14.15;;;6.60;;
16820;SDS011;8527;49.740;6.604;2024-01-30T21:36:11;11.70;;;5.82;;
16820;SDS011;8527;49.740;6.604;2024-01-30T21:41:13;11.15;;;6.40;;
16820;SDS011;8527;49.740;6.604;2024-01-30T21:46:25;8.77;;;5.25;;
16820;SDS011;8527;49.740;6.604;2024-01-30T21:51:26;10.23;;;4.35;;
16820;SDS011;8527;49.740;6.604;2024-01-30T21:56:24;7.53;;;4.53;;
16820;SDS011;8527;49.740;6.604;2024-01-30T22:01:25;9.75;;;4.88;;
16820;SDS011;8527;49.740;6.604;2024-01-30T22:06:26;8.98;;;4.63;;
16820;SDS011;8527;49.740;6.604;2024-01-30T22:11:25;9.65;;;3.90;;
16820;SDS011;8527;49.740;6.604;2024-01-30T22:16:28;5.95;;;3.30;;
16820;SDS011;8527;49.740;6.604;2024-01-30T22:21:27;4.05;;;2.90;;
16820;SDS011;8527;49.740;6.604;2024-01-30T22:26:27;7.18;;;2.70;;
16820;SDS011;8527;49.740;6.604;2024-01-30T22:31:25;6.88;;;2.60;;
16820;SDS011;8527;49.740;6.604;2024-01-30T22:36:28;3.55;;;2.47;;
16820;SDS011;8527;49.740;6.604;2024-01-30T22:41:30;8.13;;;2.58;;
16820;SDS011;8527;49.740;6.604;2024-01-30T22:46:33;2.67;;;2.30;;
16820;SDS011;8527;49.740;6.604;2024-01-30T22:51:32;6.88;;;2.38;;
16820;SDS011;8527;49.740;6.604;2024-01-30T22:56:33;9.18;;;2.85;;
16820;SDS011;8527;49.740;6.604;2024-01-30T23:01:34;11.10;;;2.83;;
16820;SDS011;8527;49.740;6.604;2024-01-30T23:06:34;3.35;;;1.77;;
16820;SDS011;8527;49.740;6.604;2024-01-30T23:11:35;6.07;;;2.20;;
16820;SDS011;8527;49.740;6.604;2024-01-30T23:16:36;2.72;;;2.03;;
16820;SDS011;8527;49.740;6.604;2024-01-30T23:21:35;4.07;;;2.00;;
16820;SDS011;8527;49.740;6.604;2024-01-30T23:26:33;4.05;;;1.70;;
16820;SDS011;8527;49.740;6.604;2024-01-30T23:31:31;5.70;;;2.25;;
16820;SDS011;8527;49.740;6.604;2024-01-30T23:36:33;8.15;;;2.10;;
16820;SDS011;8527;49.740;6.604;2024-01-30T23:41:37;7.65;;;2.00;;
16820;SDS011;8527;49.740;6.604;2024-01-30T23:46:41;4.70;;;1.70;;
16820;SDS011;8527;49.740;6.604;2024-01-30T23:51:42;3.85;;;1.70;;
16820;SDS011;8527;49.740;6.604;2024-01-30T23:56:41;4.72;;;1.90;;
